sensor_id;sensor_type;location;lat;lon;timestamp;P1;durP1;ratioP1;P2;durP2;ratioP2
36221;SDS011;22266;52.340;4.962;2023-05-07T00:02:26;32.50;;;32.00;;
36221;SDS011;22266;52.340;4.962;2023-05-07T00:04:52;36.00;;;30.00;;
36221;SDS011;22266;52.340;4.962;2023-05-07T00:07:19;26.25;;;22.25;;
36221;SDS011;22266;52.340;4.962;2023-05-07T00:09:45;33.75;;;33.00;;
36221;SDS011;22266;52.340;4.962;2023-05-07T00:12:12;33.25;;;29.50;;
36221;SDS011;22266;52.340;4.962;2023-05-07T00:14:38;39.00;;;34.75;;
36221;SDS011;22266;52.340;4.962;2023-05-07T00:17:05;30.00;;;28.50;;
36221;SDS011;22266;52.340;4.962;2023-05-07T00:19:31;42.25;;;33.50;;
36221;SDS011;22266;52.340;4.962;2023-05-07T00:21:58;42.25;;;40.00;;
36221;SDS011;22266;52.340;4.962;2023-05-07T00:24:24;31.00;;;26.50;;
36221;SDS011;22266;52.340;4.962;2023-05-07T00:26:51;31.50;;;30.50;;
36221;SDS011;22266;52.340;4.962;2023-05-07T00:29:18;12.50;;;6.25;;
36221;SDS011;22266;52.340;4.962;2023-05-07T00:31:45;34.50;;;28.00;;
36221;SDS011;22266;52.340;4.962;2023-05-07T00:34:11;31.25;;;29.25;;
36221;SDS011;22266;52.340;4.962;2023-05-07T00:36:38;30.00;;;25.50;;
36221;SDS011;22266;52.340;4.962;2023-05-07T00:39:04;24.00;;;21.25;;
36221;SDS011;22266;52.340;4.962;2023-05-07T00:41:31;26.25;;;26.25;;
36221;SDS011;22266;52.340;4.962;2023-05-07T00:43:57;26.50;;;25.25;;
36221;SDS011;22266;52.340;4.962;2023-05-07T00:46:24;32.00;;;30.50;;
36221;SDS011;22266;52.340;4.962;2023-05-07T00:48:51;39.00;;;33.50;;
36221;SDS011;22266;52.340;4.962;2023-05-07T00:51:17;32.25;;;27.00;;
36221;SDS011;22266;52.340;4.962;2023-05-07T00:53:44;38.75;;;32.00;;
36221;SDS011;22266;52.340;4.962;2023-05-07T00:56:11;33.00;;;29.50;;
36221;SDS011;22266;52.340;4.962;2023-05-07T00:58:38;29.50;;;28.25;;
36221;SDS011;22266;52.340;4.962;2023-05-07T01:01:05;36.00;;;31.50;;
36221;SDS011;22266;52.340;4.962;2023-05-07T01:03:32;31.75;;;30.75;;
36221;SDS011;22266;52.340;4.962;2023-05-07T01:05:59;32.75;;;30.00;;
36221;SDS011;22266;52.340;4.962;2023-05-07T01:08:28;37.50;;;33.75;;
36221;SDS011;22266;52.340;4.962;2023-05-07T01:10:57;29.75;;;28.00;;
36221;SDS011;22266;52.340;4.962;2023-05-07T01:13:23;27.75;;;26.25;;
36221;SDS011;22266;52.340;4.962;2023-05-07T01:15:51;34.50;;;27.50;;
36221;SDS011;22266;52.340;4.962;2023-05-07T01:18:18;29.50;;;28.00;;
36221;SDS011;22266;52.340;4.962;2023-05-07T01:20:45;31.25;;;28.25;;
36221;SDS011;22266;52.340;4.962;2023-05-07T01:23:11;35.25;;;31.00;;
36221;SDS011;22266;52.340;4.962;2023-05-07T01:25:38;27.00;;;26.75;;
36221;SDS011;22266;52.340;4.962;2023-05-07T01:28:06;36.25;;;34.50;;
36221;SDS011;22266;52.340;4.962;2023-05-07T01:30:35;27.50;;;27.00;;
36221;SDS011;22266;52.340;4.962;2023-05-07T01:33:09;32.75;;;26.50;;
36221;SDS011;22266;52.340;4.962;2023-05-07T01:35:41;30.75;;;28.00;;
36221;SDS011;22266;52.340;4.962;2023-05-07T01:38:12;32.75;;;30.00;;
36221;SDS011;22266;52.340;4.962;2023-05-07T01:40:39;29.25;;;26.00;;
36221;SDS011;22266;52.340;4.962;2023-05-07T01:43:07;29.25;;;23.25;;
36221;SDS011;22266;52.340;4.962;2023-05-07T01:45:35;33.50;;;27.00;;
36221;SDS011;22266;52.340;4.962;2023-05-07T01:48:02;23.25;;;20.75;;
36221;SDS011;22266;52.340;4.962;2023-05-07T01:50:30;24.75;;;22.75;;
36221;SDS011;22266;52.340;4.962;2023-05-07T01:52:57;26.00;;;23.25;;
36221;SDS011;22266;52.340;4.962;2023-05-07T01:55:24;25.50;;;25.50;;
36221;SDS011;22266;52.340;4.962;2023-05-07T01:57:50;23.50;;;20.25;;
36221;SDS011;22266;52.340;4.962;2023-05-07T02:00:17;28.25;;;25.75;;
36221;SDS011;22266;52.340;4.962;2023-05-07T02:02:45;20.50;;;16.50;;
36221;SDS011;22266;52.340;4.962;2023-05-07T02:05:27;26.50;;;22.50;;
36221;SDS011;22266;52.340;4.962;2023-05-07T02:08:16;19.25;;;19.00;;
36221;SDS011;22266;52.340;4.962;2023-05-07T02:10:42;23.50;;;20.75;;
36221;SDS011;22266;52.340;4.962;2023-05-07T02:13:09;22.75;;;19.00;;
36221;SDS011;22266;52.340;4.962;2023-05-07T02:15:35;22.25;;;21.00;;
36221;SDS011;22266;52.340;4.962;2023-05-07T02:18:04;18.50;;;18.00;;
36221;SDS011;22266;52.340;4.962;2023-05-07T02:20:32;18.50;;;18.50;;
36221;SDS011;22266;52.340;4.962;2023-05-07T02:22:59;27.00;;;23.00;;
36221;SDS011;22266;52.340;4.962;2023-05-07T02:25:27;24.50;;;22.25;;
36221;SDS011;22266;52.340;4.962;2023-05-07T02:27:55;21.25;;;18.50;;
36221;SDS011;22266;52.340;4.962;2023-05-07T02:30:30;24.75;;;24.25;;
36221;SDS011;22266;52.340;4.962;2023-05-07T02:32:58;26.25;;;26.25;;
36221;SDS011;22266;52.340;4.962;2023-05-07T02:35:25;26.50;;;25.75;;
36221;SDS011;22266;52.340;4.962;2023-05-07T02:37:52;25.00;;;20.25;;
36221;SDS011;22266;52.340;4.962;2023-05-07T02:40:19;18.25;;;18.25;;
36221;SDS011;22266;52.340;4.962;2023-05-07T02:42:46;16.50;;;16.25;;
36221;SDS011;22266;52.340;4.962;2023-05-07T02:45:13;16.25;;;14.00;;
36221;SDS011;22266;52.340;4.962;2023-05-07T02:47:41;15.00;;;15.00;;
36221;SDS011;22266;52.340;4.962;2023-05-07T02:50:07;17.50;;;15.00;;
36221;SDS011;22266;52.340;4.962;2023-05-07T02:52:35;16.75;;;15.25;;
36221;SDS011;22266;52.340;4.962;2023-05-07T02:55:01;12.00;;;12.00;;
36221;SDS011;22266;52.340;4.962;2023-05-07T02:57:28;16.25;;;14.50;;
36221;SDS011;22266;52.340;4.962;2023-05-07T02:59:57;14.67;;;14.00;;
36221;SDS011;22266;52.340;4.962;2023-05-07T03:02:29;15.25;;;15.00;;
36221;SDS011;22266;52.340;4.962;2023-05-07T03:04:56;16.00;;;14.67;;
36221;SDS011;22266;52.340;4.962;2023-05-07T03:07:22;10.67;;;10.67;;
36221;SDS011;22266;52.340;4.962;2023-05-07T03:09:49;15.75;;;14.00;;
36221;SDS011;22266;52.340;4.962;2023-05-07T03:12:15;11.00;;;11.00;;
36221;SDS011;22266;52.340;4.962;2023-05-07T03:14:42;15.00;;;14.00;;
36221;SDS011;22266;52.340;4.962;2023-05-07T03:17:08;12.75;;;10.25;;
36221;SDS011;22266;52.340;4.962;2023-05-07T03:19:35;12.25;;;12.25;;
36221;SDS011;22266;52.340;4.962;2023-05-07T03:22:01;11.75;;;11.00;;
36221;SDS011;22266;52.340;4.962;2023-05-07T03:24:28;13.50;;;11.75;;
36221;SDS011;22266;52.340;4.962;2023-05-07T03:26:54;11.75;;;11.75;;
36221;SDS011;22266;52.340;4.962;2023-05-07T03:29:21;12.00;;;12.00;;
36221;SDS011;22266;52.340;4.962;2023-05-07T03:31:48;10.50;;;10.50;;
36221;SDS011;22266;52.340;4.962;2023-05-07T03:34:15;12.33;;;11.00;;
36221;SDS011;22266;52.340;4.962;2023-05-07T03:36:43;10.00;;;10.00;;
36221;SDS011;22266;52.340;4.962;2023-05-07T03:39:11;9.00;;;7.00;;
36221;SDS011;22266;52.340;4.962;2023-05-07T03:41:39;10.00;;;10.00;;
36221;SDS011;22266;52.340;4.962;2023-05-07T03:44:06;11.00;;;10.00;;
36221;SDS011;22266;52.340;4.962;2023-05-07T03:46:33;11.00;;;11.00;;
36221;SDS011;22266;52.340;4.962;2023-05-07T03:49:01;14.00;;;13.75;;
36221;SDS011;22266;52.340;4.962;2023-05-07T03:51:29;11.67;;;11.67;;
36221;SDS011;22266;52.340;4.962;2023-05-07T03:53:56;11.33;;;10.67;;
36221;SDS011;22266;52.340;4.962;2023-05-07T03:56:24;8.25;;;6.50;;
36221;SDS011;22266;52.340;4.962;2023-05-07T03:58:53;14.75;;;14.00;;
36221;SDS011;22266;52.340;4.962;2023-05-07T04:01:20;10.00;;;10.00;;
36221;SDS011;22266;52.340;4.962;2023-05-07T04:03:47;11.00;;;10.00;;
36221;SDS011;22266;52.340;4.962;2023-05-07T04:06:15;11.67;;;11.00;;
36221;SDS011;22266;52.340;4.962;2023-05-07T04:08:43;10.33;;;9.00;;
36221;SDS011;22266;52.340;4.962;2023-05-07T04:11:11;10.50;;;9.00;;
36221;SDS011;22266;52.340;4.962;2023-05-07T04:13:38;10.33;;;10.00;;
36221;SDS011;22266;52.340;4.962;2023-05-07T04:16:06;12.67;;;12.00;;
36221;SDS011;22266;52.340;4.962;2023-05-07T04:18:35;9.67;;;8.67;;
36221;SDS011;22266;52.340;4.962;2023-05-07T04:21:03;10.00;;;10.00;;
36221;SDS011;22266;52.340;4.962;2023-05-07T04:23:29;10.33;;;10.33;;
36221;SDS011;22266;52.340;4.962;2023-05-07T04:26:00;12.25;;;12.25;;
36221;SDS011;22266;52.340;4.962;2023-05-07T04:28:38;12.00;;;10.33;;
36221;SDS011;22266;52.340;4.962;2023-05-07T04:31:06;14.75;;;14.25;;
36221;SDS011;22266;52.340;4.962;2023-05-07T04:33:34;14.33;;;12.00;;
36221;SDS011;22266;52.340;4.962;2023-05-07T04:36:02;16.00;;;14.50;;
36221;SDS011;22266;52.340;4.962;2023-05-07T04:38:34;12.75;;;12.00;;
36221;SDS011;22266;52.340;4.962;2023-05-07T04:41:05;13.00;;;11.33;;
36221;SDS011;22266;52.340;4.962;2023-05-07T04:43:37;12.50;;;12.50;;
36221;SDS011;22266;52.340;4.962;2023-05-07T04:46:03;14.75;;;14.75;;
36221;SDS011;22266;52.340;4.962;2023-05-07T04:48:30;9.67;;;9.67;;
36221;SDS011;22266;52.340;4.962;2023-05-07T04:50:58;9.33;;;8.00;;
36221;SDS011;22266;52.340;4.962;2023-05-07T04:53:24;16.25;;;13.25;;
36221;SDS011;22266;52.340;4.962;2023-05-07T04:55:56;15.33;;;13.00;;
36221;SDS011;22266;52.340;4.962;2023-05-07T04:58:31;12.00;;;12.00;;
36221;SDS011;22266;52.340;4.962;2023-05-07T05:00:58;18.75;;;16.75;;
36221;SDS011;22266;52.340;4.962;2023-05-07T05:03:27;13.75;;;13.75;;
36221;SDS011;22266;52.340;4.962;2023-05-07T05:05:54;14.25;;;14.25;;
36221;SDS011;22266;52.340;4.962;2023-05-07T05:08:22;22.25;;;21.00;;
36221;SDS011;22266;52.340;4.962;2023-05-07T05:10:48;18.00;;;15.00;;
36221;SDS011;22266;52.340;4.962;2023-05-07T05:13:16;20.25;;;19.50;;
36221;SDS011;22266;52.340;4.962;2023-05-07T05:15:43;18.50;;;15.00;;
36221;SDS011;22266;52.340;4.962;2023-05-07T05:18:10;19.25;;;17.00;;
36221;SDS011;22266;52.340;4.962;2023-05-07T05:20:38;22.75;;;20.00;;
36221;SDS011;22266;52.340;4.962;2023-05-07T05:23:05;20.75;;;16.75;;
36221;SDS011;22266;52.340;4.962;2023-05-07T05:25:32;23.50;;;20.00;;
36221;SDS011;22266;52.340;4.962;2023-05-07T05:28:00;17.75;;;16.75;;
36221;SDS011;22266;52.340;4.962;2023-05-07T05:30:28;19.50;;;17.75;;
36221;SDS011;22266;52.340;4.962;2023-05-07T05:32:54;23.75;;;20.00;;
36221;SDS011;22266;52.340;4.962;2023-05-07T05:35:21;29.00;;;26.25;;
36221;SDS011;22266;52.340;4.962;2023-05-07T05:37:48;23.00;;;21.75;;
36221;SDS011;22266;52.340;4.962;2023-05-07T05:40:16;19.00;;;19.00;;
36221;SDS011;22266;52.340;4.962;2023-05-07T05:42:42;23.25;;;21.25;;
36221;SDS011;22266;52.340;4.962;2023-05-07T05:45:09;23.25;;;21.25;;
36221;SDS011;22266;52.340;4.962;2023-05-07T05:47:37;22.25;;;20.75;;
36221;SDS011;22266;52.340;4.962;2023-05-07T05:50:04;26.25;;;24.25;;
36221;SDS011;22266;52.340;4.962;2023-05-07T05:52:32;20.00;;;17.75;;
36221;SDS011;22266;52.340;4.962;2023-05-07T05:54:59;16.50;;;16.50;;
36221;SDS011;22266;52.340;4.962;2023-05-07T05:57:26;29.75;;;26.75;;
36221;SDS011;22266;52.340;4.962;2023-05-07T05:59:54;27.00;;;24.00;;
36221;SDS011;22266;52.340;4.962;2023-05-07T06:02:21;17.75;;;17.50;;
36221;SDS011;22266;52.340;4.962;2023-05-07T06:04:48;28.25;;;27.00;;
36221;SDS011;22266;52.340;4.962;2023-05-07T06:07:17;18.50;;;18.50;;
36221;SDS011;22266;52.340;4.962;2023-05-07T06:09:44;20.25;;;20.00;;
36221;SDS011;22266;52.340;4.962;2023-05-07T06:12:11;19.25;;;18.50;;
36221;SDS011;22266;52.340;4.962;2023-05-07T06:14:38;21.75;;;20.25;;
36221;SDS011;22266;52.340;4.962;2023-05-07T06:17:04;22.50;;;19.75;;
36221;SDS011;22266;52.340;4.962;2023-05-07T06:19:31;21.25;;;19.00;;
36221;SDS011;22266;52.340;4.962;2023-05-07T06:21:58;17.00;;;16.00;;
36221;SDS011;22266;52.340;4.962;2023-05-07T06:24:28;17.00;;;17.00;;
36221;SDS011;22266;52.340;4.962;2023-05-07T06:26:55;17.75;;;17.50;;
36221;SDS011;22266;52.340;4.962;2023-05-07T06:29:22;17.25;;;15.25;;
36221;SDS011;22266;52.340;4.962;2023-05-07T06:31:49;17.25;;;17.25;;
36221;SDS011;22266;52.340;4.962;2023-05-07T06:34:15;18.50;;;17.00;;
36221;SDS011;22266;52.340;4.962;2023-05-07T06:36:42;20.25;;;19.00;;
36221;SDS011;22266;52.340;4.962;2023-05-07T06:39:22;18.50;;;17.50;;
36221;SDS011;22266;52.340;4.962;2023-05-07T06:41:51;21.75;;;20.50;;
36221;SDS011;22266;52.340;4.962;2023-05-07T06:44:24;25.00;;;24.00;;
36221;SDS011;22266;52.340;4.962;2023-05-07T06:47:03;23.00;;;20.50;;
36221;SDS011;22266;52.340;4.962;2023-05-07T06:49:29;17.50;;;17.50;;
36221;SDS011;22266;52.340;4.962;2023-05-07T06:51:56;29.00;;;28.50;;
36221;SDS011;22266;52.340;4.962;2023-05-07T06:54:23;25.50;;;25.50;;
36221;SDS011;22266;52.340;4.962;2023-05-07T06:56:50;25.50;;;24.00;;
36221;SDS011;22266;52.340;4.962;2023-05-07T06:59:17;21.75;;;21.75;;
36221;SDS011;22266;52.340;4.962;2023-05-07T07:01:45;27.75;;;25.50;;
36221;SDS011;22266;52.340;4.962;2023-05-07T07:04:12;17.25;;;16.75;;
36221;SDS011;22266;52.340;4.962;2023-05-07T07:06:41;23.75;;;23.50;;
36221;SDS011;22266;52.340;4.962;2023-05-07T07:09:10;23.00;;;22.00;;
36221;SDS011;22266;52.340;4.962;2023-05-07T07:11:36;20.50;;;20.50;;
36221;SDS011;22266;52.340;4.962;2023-05-07T07:14:04;21.50;;;21.50;;
36221;SDS011;22266;52.340;4.962;2023-05-07T07:16:35;26.75;;;26.75;;
36221;SDS011;22266;52.340;4.962;2023-05-07T07:19:02;29.00;;;26.25;;
36221;SDS011;22266;52.340;4.962;2023-05-07T07:21:28;25.25;;;25.25;;
36221;SDS011;22266;52.340;4.962;2023-05-07T07:23:55;27.00;;;23.00;;
36221;SDS011;22266;52.340;4.962;2023-05-07T07:26:21;27.75;;;23.00;;
36221;SDS011;22266;52.340;4.962;2023-05-07T07:28:48;16.00;;;15.25;;
36221;SDS011;22266;52.340;4.962;2023-05-07T07:31:18;23.75;;;19.75;;
36221;SDS011;22266;52.340;4.962;2023-05-07T07:33:46;28.00;;;25.75;;
36221;SDS011;22266;52.340;4.962;2023-05-07T07:36:12;25.25;;;23.50;;
36221;SDS011;22266;52.340;4.962;2023-05-07T07:38:40;20.25;;;19.50;;
36221;SDS011;22266;52.340;4.962;2023-05-07T07:41:07;30.50;;;26.25;;
36221;SDS011;22266;52.340;4.962;2023-05-07T07:43:35;24.00;;;24.00;;
36221;SDS011;22266;52.340;4.962;2023-05-07T07:46:02;18.33;;;17.67;;
36221;SDS011;22266;52.340;4.962;2023-05-07T07:48:29;19.00;;;19.00;;
36221;SDS011;22266;52.340;4.962;2023-05-07T07:50:57;24.75;;;24.75;;
36221;SDS011;22266;52.340;4.962;2023-05-07T07:53:24;20.67;;;19.00;;
36221;SDS011;22266;52.340;4.962;2023-05-07T07:55:50;24.67;;;22.67;;
36221;SDS011;22266;52.340;4.962;2023-05-07T07:58:21;22.75;;;22.75;;
36221;SDS011;22266;52.340;4.962;2023-05-07T08:00:49;28.00;;;27.00;;
36221;SDS011;22266;52.340;4.962;2023-05-07T08:03:15;27.75;;;25.50;;
36221;SDS011;22266;52.340;4.962;2023-05-07T08:05:46;33.25;;;30.50;;
36221;SDS011;22266;52.340;4.962;2023-05-07T08:08:13;24.00;;;22.33;;
36221;SDS011;22266;52.340;4.962;2023-05-07T08:10:41;21.67;;;21.33;;
36221;SDS011;22266;52.340;4.962;2023-05-07T08:13:16;27.50;;;26.75;;
36221;SDS011;22266;52.340;4.962;2023-05-07T08:15:43;24.50;;;24.50;;
36221;SDS011;22266;52.340;4.962;2023-05-07T08:18:11;29.25;;;29.25;;
36221;SDS011;22266;52.340;4.962;2023-05-07T08:20:38;28.00;;;24.50;;
36221;SDS011;22266;52.340;4.962;2023-05-07T08:23:08;25.67;;;24.33;;
36221;SDS011;22266;52.340;4.962;2023-05-07T08:25:37;19.00;;;18.67;;
36221;SDS011;22266;52.340;4.962;2023-05-07T08:28:04;21.50;;;21.50;;
36221;SDS011;22266;52.340;4.962;2023-05-07T08:30:32;22.00;;;22.00;;
36221;SDS011;22266;52.340;4.962;2023-05-07T08:32:59;25.25;;;24.50;;
36221;SDS011;22266;52.340;4.962;2023-05-07T08:35:26;28.50;;;27.50;;
36221;SDS011;22266;52.340;4.962;2023-05-07T08:37:54;20.67;;;20.67;;
36221;SDS011;22266;52.340;4.962;2023-05-07T08:40:25;29.75;;;27.75;;
36221;SDS011;22266;52.340;4.962;2023-05-07T08:42:53;25.50;;;24.50;;
36221;SDS011;22266;52.340;4.962;2023-05-07T08:45:22;17.33;;;17.00;;
36221;SDS011;22266;52.340;4.962;2023-05-07T08:47:51;26.75;;;25.75;;
36221;SDS011;22266;52.340;4.962;2023-05-07T08:50:23;23.33;;;22.33;;
36221;SDS011;22266;52.340;4.962;2023-05-07T08:52:51;34.50;;;27.50;;
36221;SDS011;22266;52.340;4.962;2023-05-07T08:55:19;29.00;;;27.67;;
36221;SDS011;22266;52.340;4.962;2023-05-07T08:57:47;23.33;;;23.00;;
36221;SDS011;22266;52.340;4.962;2023-05-07T09:00:15;21.67;;;21.67;;
36221;SDS011;22266;52.340;4.962;2023-05-07T09:02:45;20.67;;;20.67;;
36221;SDS011;22266;52.340;4.962;2023-05-07T09:05:12;16.67;;;16.00;;
36221;SDS011;22266;52.340;4.962;2023-05-07T09:07:39;18.00;;;17.00;;
36221;SDS011;22266;52.340;4.962;2023-05-07T09:10:07;23.67;;;23.00;;
36221;SDS011;22266;52.340;4.962;2023-05-07T09:12:36;20.00;;;20.00;;
36221;SDS011;22266;52.340;4.962;2023-05-07T09:15:05;17.33;;;17.33;;
36221;SDS011;22266;52.340;4.962;2023-05-07T09:17:33;20.00;;;18.67;;
36221;SDS011;22266;52.340;4.962;2023-05-07T09:20:03;20.00;;;20.00;;
36221;SDS011;22266;52.340;4.962;2023-05-07T09:22:35;28.00;;;25.67;;
36221;SDS011;22266;52.340;4.962;2023-05-07T09:25:06;26.67;;;24.00;;
36221;SDS011;22266;52.340;4.962;2023-05-07T09:27:36;32.33;;;28.00;;
36221;SDS011;22266;52.340;4.962;2023-05-07T09:30:04;21.33;;;21.00;;
36221;SDS011;22266;52.340;4.962;2023-05-07T09:32:35;15.25;;;15.00;;
36221;SDS011;22266;52.340;4.962;2023-05-07T09:35:06;20.00;;;17.33;;
36221;SDS011;22266;52.340;4.962;2023-05-07T09:37:42;27.33;;;25.33;;
36221;SDS011;22266;52.340;4.962;2023-05-07T09:40:19;21.67;;;18.00;;
36221;SDS011;22266;52.340;4.962;2023-05-07T09:42:49;20.33;;;20.33;;
36221;SDS011;22266;52.340;4.962;2023-05-07T09:45:26;25.00;;;22.67;;
36221;SDS011;22266;52.340;4.962;2023-05-07T09:47:57;18.75;;;17.75;;
36221;SDS011;22266;52.340;4.962;2023-05-07T09:50:26;19.00;;;18.50;;
36221;SDS011;22266;52.340;4.962;2023-05-07T09:52:55;15.75;;;15.00;;
36221;SDS011;22266;52.340;4.962;2023-05-07T09:55:23;14.75;;;12.75;;
36221;SDS011;22266;52.340;4.962;2023-05-07T09:57:52;16.00;;;15.25;;
36221;SDS011;22266;52.340;4.962;2023-05-07T10:00:20;12.00;;;11.50;;
36221;SDS011;22266;52.340;4.962;2023-05-07T10:02:51;19.00;;;18.67;;
36221;SDS011;22266;52.340;4.962;2023-05-07T10:05:29;20.67;;;20.00;;
36221;SDS011;22266;52.340;4.962;2023-05-07T10:07:58;14.50;;;14.25;;
36221;SDS011;22266;52.340;4.962;2023-05-07T10:10:29;13.25;;;13.25;;
36221;SDS011;22266;52.340;4.962;2023-05-07T10:12:58;18.25;;;16.25;;
36221;SDS011;22266;52.340;4.962;2023-05-07T10:15:31;16.75;;;16.00;;
36221;SDS011;22266;52.340;4.962;2023-05-07T10:18:00;16.75;;;14.50;;
36221;SDS011;22266;52.340;4.962;2023-05-07T10:20:28;13.50;;;13.00;;
36221;SDS011;22266;52.340;4.962;2023-05-07T10:22:55;16.75;;;15.00;;
36221;SDS011;22266;52.340;4.962;2023-05-07T10:25:32;18.50;;;17.00;;
36221;SDS011;22266;52.340;4.962;2023-05-07T10:28:06;19.33;;;18.00;;
36221;SDS011;22266;52.340;4.962;2023-05-07T10:30:46;24.00;;;21.00;;
36221;SDS011;22266;52.340;4.962;2023-05-07T10:33:33;12.00;;;12.00;;
36221;SDS011;22266;52.340;4.962;2023-05-07T10:36:02;17.67;;;17.67;;
36221;SDS011;22266;52.340;4.962;2023-05-07T10:38:31;17.33;;;17.33;;
36221;SDS011;22266;52.340;4.962;2023-05-07T10:40:59;15.50;;;15.50;;
36221;SDS011;22266;52.340;4.962;2023-05-07T10:43:38;19.67;;;19.33;;
36221;SDS011;22266;52.340;4.962;2023-05-07T10:51:37;19.25;;;18.50;;
36221;SDS011;22266;52.340;4.962;2023-05-07T10:54:18;15.50;;;14.75;;
36221;SDS011;22266;52.340;4.962;2023-05-07T10:56:53;18.25;;;17.50;;
36221;SDS011;22266;52.340;4.962;2023-05-07T10:59:31;16.25;;;14.25;;
36221;SDS011;22266;52.340;4.962;2023-05-07T11:02:07;14.00;;;11.25;;
36221;SDS011;22266;52.340;4.962;2023-05-07T11:07:56;12.75;;;12.00;;
36221;SDS011;22266;52.340;4.962;2023-05-07T11:10:50;10.75;;;10.75;;
36221;SDS011;22266;52.340;4.962;2023-05-07T11:13:48;6.50;;;5.75;;
36221;SDS011;22266;52.340;4.962;2023-05-07T11:16:46;10.25;;;9.25;;
36221;SDS011;22266;52.340;4.962;2023-05-07T11:19:47;22.50;;;22.50;;
36221;SDS011;22266;52.340;4.962;2023-05-07T11:25:09;27.67;;;25.00;;
36221;SDS011;22266;52.340;4.962;2023-05-07T11:27:37;20.25;;;19.25;;
36221;SDS011;22266;52.340;4.962;2023-05-07T11:30:04;31.33;;;28.67;;
36221;SDS011;22266;52.340;4.962;2023-05-07T11:32:31;19.50;;;19.50;;
36221;SDS011;22266;52.340;4.962;2023-05-07T11:35:00;20.67;;;20.67;;
36221;SDS011;22266;52.340;4.962;2023-05-07T11:37:27;21.00;;;17.00;;
36221;SDS011;22266;52.340;4.962;2023-05-07T11:40:03;20.50;;;19.75;;
36221;SDS011;22266;52.340;4.962;2023-05-07T11:42:36;16.00;;;16.00;;
36221;SDS011;22266;52.340;4.962;2023-05-07T11:45:04;18.25;;;17.75;;
36221;SDS011;22266;52.340;4.962;2023-05-07T11:47:32;21.50;;;18.00;;
36221;SDS011;22266;52.340;4.962;2023-05-07T11:50:06;18.75;;;15.50;;
36221;SDS011;22266;52.340;4.962;2023-05-07T11:52:34;17.50;;;14.75;;
36221;SDS011;22266;52.340;4.962;2023-05-07T11:55:01;21.67;;;21.67;;
36221;SDS011;22266;52.340;4.962;2023-05-07T11:57:29;17.00;;;16.25;;
36221;SDS011;22266;52.340;4.962;2023-05-07T11:59:58;15.50;;;15.50;;
36221;SDS011;22266;52.340;4.962;2023-05-07T12:02:37;16.75;;;15.25;;
36221;SDS011;22266;52.340;4.962;2023-05-07T12:05:04;17.25;;;16.50;;
36221;SDS011;22266;52.340;4.962;2023-05-07T12:07:33;18.50;;;17.25;;
36221;SDS011;22266;52.340;4.962;2023-05-07T12:10:03;22.00;;;21.00;;
36221;SDS011;22266;52.340;4.962;2023-05-07T12:12:31;15.00;;;14.75;;
36221;SDS011;22266;52.340;4.962;2023-05-07T12:14:57;18.50;;;18.50;;
36221;SDS011;22266;52.340;4.962;2023-05-07T12:17:23;16.50;;;14.50;;
36221;SDS011;22266;52.340;4.962;2023-05-07T12:19:50;19.25;;;19.25;;
36221;SDS011;22266;52.340;4.962;2023-05-07T12:22:18;19.00;;;19.00;;
36221;SDS011;22266;52.340;4.962;2023-05-07T12:24:45;16.00;;;13.50;;
36221;SDS011;22266;52.340;4.962;2023-05-07T12:27:14;16.50;;;16.50;;
36221;SDS011;22266;52.340;4.962;2023-05-07T12:29:48;17.50;;;17.50;;
36221;SDS011;22266;52.340;4.962;2023-05-07T12:32:15;19.50;;;19.50;;
36221;SDS011;22266;52.340;4.962;2023-05-07T12:34:43;16.25;;;11.50;;
36221;SDS011;22266;52.340;4.962;2023-05-07T12:37:11;12.25;;;12.25;;
36221;SDS011;22266;52.340;4.962;2023-05-07T12:39:44;19.00;;;16.50;;
36221;SDS011;22266;52.340;4.962;2023-05-07T12:42:16;13.25;;;13.00;;
36221;SDS011;22266;52.340;4.962;2023-05-07T12:44:46;12.50;;;12.50;;
36221;SDS011;22266;52.340;4.962;2023-05-07T12:47:12;12.50;;;12.50;;
36221;SDS011;22266;52.340;4.962;2023-05-07T12:49:41;12.75;;;11.25;;
36221;SDS011;22266;52.340;4.962;2023-05-07T12:52:08;13.75;;;12.75;;
36221;SDS011;22266;52.340;4.962;2023-05-07T12:54:35;15.00;;;13.75;;
36221;SDS011;22266;52.340;4.962;2023-05-07T12:57:07;17.00;;;14.50;;
36221;SDS011;22266;52.340;4.962;2023-05-07T12:59:39;8.25;;;8.25;;
36221;SDS011;22266;52.340;4.962;2023-05-07T13:02:07;12.00;;;11.50;;
36221;SDS011;22266;52.340;4.962;2023-05-07T13:04:36;14.00;;;12.50;;
36221;SDS011;22266;52.340;4.962;2023-05-07T13:07:02;14.25;;;14.00;;
36221;SDS011;22266;52.340;4.962;2023-05-07T13:09:29;12.25;;;12.25;;
36221;SDS011;22266;52.340;4.962;2023-05-07T13:11:57;8.00;;;8.00;;
36221;SDS011;22266;52.340;4.962;2023-05-07T13:14:27;13.00;;;12.00;;
36221;SDS011;22266;52.340;4.962;2023-05-07T13:16:53;10.00;;;9.25;;
36221;SDS011;22266;52.340;4.962;2023-05-07T13:19:20;18.75;;;17.25;;
36221;SDS011;22266;52.340;4.962;2023-05-07T13:21:46;16.50;;;14.25;;
36221;SDS011;22266;52.340;4.962;2023-05-07T13:24:13;14.75;;;13.75;;
36221;SDS011;22266;52.340;4.962;2023-05-07T13:26:39;20.50;;;19.00;;
36221;SDS011;22266;52.340;4.962;2023-05-07T13:29:06;12.25;;;10.50;;
36221;SDS011;22266;52.340;4.962;2023-05-07T13:31:32;10.50;;;10.00;;
36221;SDS011;22266;52.340;4.962;2023-05-07T13:34:00;17.25;;;16.75;;
36221;SDS011;22266;52.340;4.962;2023-05-07T13:36:26;21.00;;;18.33;;
36221;SDS011;22266;52.340;4.962;2023-05-07T13:38:52;19.50;;;17.75;;
36221;SDS011;22266;52.340;4.962;2023-05-07T13:41:19;27.67;;;25.33;;
36221;SDS011;22266;52.340;4.962;2023-05-07T13:43:46;20.25;;;19.25;;
36221;SDS011;22266;52.340;4.962;2023-05-07T13:46:13;20.00;;;17.50;;
36221;SDS011;22266;52.340;4.962;2023-05-07T13:48:39;16.50;;;16.50;;
36221;SDS011;22266;52.340;4.962;2023-05-07T13:51:06;17.00;;;15.75;;
36221;SDS011;22266;52.340;4.962;2023-05-07T13:53:32;14.00;;;14.00;;
36221;SDS011;22266;52.340;4.962;2023-05-07T13:55:59;12.00;;;10.00;;
36221;SDS011;22266;52.340;4.962;2023-05-07T13:58:25;13.25;;;11.75;;
36221;SDS011;22266;52.340;4.962;2023-05-07T14:00:52;8.75;;;8.25;;
36221;SDS011;22266;52.340;4.962;2023-05-07T14:03:18;11.25;;;10.75;;
36221;SDS011;22266;52.340;4.962;2023-05-07T14:05:46;11.75;;;10.00;;
36221;SDS011;22266;52.340;4.962;2023-05-07T14:08:15;12.00;;;12.00;;
36221;SDS011;22266;52.340;4.962;2023-05-07T14:10:43;17.50;;;16.50;;
36221;SDS011;22266;52.340;4.962;2023-05-07T14:13:10;20.33;;;18.67;;
36221;SDS011;22266;52.340;4.962;2023-05-07T14:15:37;18.50;;;17.50;;
36221;SDS011;22266;52.340;4.962;2023-05-07T14:18:03;20.67;;;20.33;;
36221;SDS011;22266;52.340;4.962;2023-05-07T14:20:30;23.67;;;22.33;;
36221;SDS011;22266;52.340;4.962;2023-05-07T14:22:57;20.50;;;15.00;;
36221;SDS011;22266;52.340;4.962;2023-05-07T14:25:23;18.00;;;17.25;;
36221;SDS011;22266;52.340;4.962;2023-05-07T14:27:51;16.25;;;16.25;;
36221;SDS011;22266;52.340;4.962;2023-05-07T14:30:18;15.25;;;14.75;;
36221;SDS011;22266;52.340;4.962;2023-05-07T14:32:45;14.25;;;14.00;;
36221;SDS011;22266;52.340;4.962;2023-05-07T14:35:12;11.00;;;10.00;;
36221;SDS011;22266;52.340;4.962;2023-05-07T14:37:39;12.50;;;12.00;;
36221;SDS011;22266;52.340;4.962;2023-05-07T14:40:06;18.00;;;17.50;;
36221;SDS011;22266;52.340;4.962;2023-05-07T14:42:33;21.67;;;20.33;;
36221;SDS011;22266;52.340;4.962;2023-05-07T14:44:59;18.00;;;18.00;;